Terminal Aerodrome Forecast
Issued by NWS Shreveport, LA

Home | Current Version | Previous Version | Text Only | Print | Product List | Glossary On
Versions: 1 2 3 4 5 6 7 8 9 10 11 12 13 14
000
FTUS44 KSHV 152300 RRA
TAFGGG
TAF
KGGG 152341Z 1600/1624 17006KT P6SM SCT035 OVC250
     FM160100 09004KT P6SM VCSH SCT035 BKN150
     FM160600 10003KT P6SM SCT035 OVC250
     FM161500 17005KT P6SM VCSH OVC100=

USA.gov is the U.S. government's official web portal to all federal, state and local government web resources and services.